AEE372 LGAV-LGMK
Flight info
| Callsign | AEE372 |
|---|---|
| Flight time | 0h 20m |
| Altitude | 13000 |
| Route | KEA L995 VARIX |
| Aircraft | A320/M-SDE3FGHIRWY/LB1 |
Departure
| Time | 2026-05-07 18:37 |
|---|---|
| Airport | Athens Eleftherios Venizelos International Airport (LGAV) |
Arrival
| Time | 2026-05-07 18:58 |
|---|---|
| Airport | Mykonos Island National Airport (LGMK) |
| Time | Latitude | Longitude | Altitude | Speed | Heading |
|---|---|---|---|---|---|
| 2026-05-07 18:03 | 37.93913 | 23.95120 | 274 ft | 0 kts | 306° |
| 2026-05-07 18:26 | 37.93900 | 23.95141 | 302 ft | 4 kts | 310° |
| 2026-05-07 18:26 | 37.93882 | 23.95166 | 300 ft | 4 kts | 317° |
| 2026-05-07 18:26 | 37.93861 | 23.95186 | 300 ft | 4 kts | 339° |
| 2026-05-07 18:27 | 37.93839 | 23.95189 | 303 ft | 1 kts | 36° |
| 2026-05-07 18:27 | 37.93835 | 23.95185 | 302 ft | 0 kts | 36° |
| 2026-05-07 18:28 | 37.93837 | 23.95187 | 303 ft | 2 kts | 35° |
| 2026-05-07 18:29 | 37.93862 | 23.95212 | 300 ft | 7 kts | 46° |
| 2026-05-07 18:29 | 37.93878 | 23.95294 | 301 ft | 12 kts | 76° |
| 2026-05-07 18:29 | 37.93870 | 23.95386 | 301 ft | 12 kts | 134° |
| 2026-05-07 18:29 | 37.93864 | 23.95485 | 298 ft | 14 kts | 45° |
| 2026-05-07 18:30 | 37.93943 | 23.95559 | 298 ft | 15 kts | 36° |
| 2026-05-07 18:30 | 37.94027 | 23.95637 | 298 ft | 15 kts | 37° |
| 2026-05-07 18:30 | 37.94113 | 23.95719 | 298 ft | 16 kts | 37° |
| 2026-05-07 18:30 | 37.94202 | 23.95804 | 298 ft | 16 kts | 37° |
| 2026-05-07 18:31 | 37.94294 | 23.95893 | 301 ft | 17 kts | 37° |
| 2026-05-07 18:31 | 37.94390 | 23.95983 | 300 ft | 17 kts | 35° |
| 2026-05-07 18:31 | 37.94490 | 23.96077 | 298 ft | 18 kts | 38° |
| 2026-05-07 18:31 | 37.94593 | 23.96175 | 302 ft | 19 kts | 35° |
| 2026-05-07 18:32 | 37.94698 | 23.96277 | 300 ft | 19 kts | 36° |
| 2026-05-07 18:32 | 37.94808 | 23.96379 | 300 ft | 20 kts | 36° |
| 2026-05-07 18:32 | 37.94919 | 23.96485 | 301 ft | 20 kts | 37° |
| 2026-05-07 18:32 | 37.95035 | 23.96594 | 302 ft | 21 kts | 38° |
| 2026-05-07 18:33 | 37.95153 | 23.96710 | 304 ft | 21 kts | 34° |
| 2026-05-07 18:33 | 37.95275 | 23.96825 | 304 ft | 22 kts | 37° |
| 2026-05-07 18:33 | 37.95360 | 23.96903 | 304 ft | 12 kts | 39° |
| 2026-05-07 18:33 | 37.95388 | 23.96968 | 303 ft | 6 kts | 94° |
| 2026-05-07 18:34 | 37.95363 | 23.97010 | 304 ft | 6 kts | 152° |
| 2026-05-07 18:34 | 37.95355 | 23.97013 | 305 ft | 0 kts | 163° |
| 2026-05-07 18:35 | 37.95337 | 23.97019 | 306 ft | 5 kts | 164° |
| 2026-05-07 18:36 | 37.95290 | 23.97027 | 309 ft | 7 kts | 173° |
| 2026-05-07 18:36 | 37.95242 | 23.97042 | 310 ft | 7 kts | 158° |
| 2026-05-07 18:36 | 37.95190 | 23.97022 | 310 ft | 9 kts | 216° |
| 2026-05-07 18:36 | 37.95102 | 23.96939 | 309 ft | 38 kts | 217° |
| 2026-05-07 18:37 | 37.94685 | 23.96539 | 300 ft | 109 kts | 217° |
| 2026-05-07 18:37 | 37.93930 | 23.95829 | 365 ft | 152 kts | 218° |
| 2026-05-07 18:37 | 37.93019 | 23.95051 | 841 ft | 166 kts | 211° |
| 2026-05-07 18:37 | 37.91958 | 23.94341 | 1452 ft | 177 kts | 206° |
| 2026-05-07 18:38 | 37.90871 | 23.93655 | 2219 ft | 177 kts | 206° |
| 2026-05-07 18:38 | 37.90121 | 23.93162 | 2589 ft | 185 kts | 207° |
| 2026-05-07 18:38 | 37.88915 | 23.92329 | 2946 ft | 211 kts | 208° |
| 2026-05-07 18:38 | 37.87560 | 23.91371 | 3435 ft | 235 kts | 208° |
| 2026-05-07 18:39 | 37.86085 | 23.90332 | 4127 ft | 248 kts | 209° |
| 2026-05-07 18:39 | 37.84556 | 23.89283 | 5106 ft | 251 kts | 207° |
| 2026-05-07 18:39 | 37.83003 | 23.88285 | 6163 ft | 250 kts | 207° |
| 2026-05-07 18:39 | 37.80972 | 23.86940 | 7497 ft | 247 kts | 209° |
| 2026-05-07 18:40 | 37.79952 | 23.86230 | 8121 ft | 249 kts | 210° |
| 2026-05-07 18:40 | 37.78422 | 23.85141 | 8880 ft | 259 kts | 207° |
| 2026-05-07 18:40 | 37.76647 | 23.84558 | 9592 ft | 272 kts | 180° |
| 2026-05-07 18:40 | 37.74827 | 23.85267 | 10362 ft | 283 kts | 147° |
| 2026-05-07 18:41 | 37.73452 | 23.87150 | 10791 ft | 307 kts | 122° |
| 2026-05-07 18:41 | 37.72391 | 23.89614 | 11035 ft | 332 kts | 119° |
| 2026-05-07 18:41 | 37.71311 | 23.92269 | 11319 ft | 346 kts | 118° |
| 2026-05-07 18:41 | 37.70220 | 23.94995 | 12057 ft | 350 kts | 118° |
| 2026-05-07 18:42 | 37.69112 | 23.97751 | 12774 ft | 355 kts | 118° |
| 2026-05-07 18:42 | 37.67982 | 24.00534 | 13063 ft | 358 kts | 118° |
| 2026-05-07 18:42 | 37.66842 | 24.03304 | 13132 ft | 351 kts | 119° |
| 2026-05-07 18:42 | 37.65716 | 24.06020 | 13140 ft | 348 kts | 119° |
| 2026-05-07 18:43 | 37.64591 | 24.08716 | 13144 ft | 347 kts | 119° |
| 2026-05-07 18:43 | 37.63462 | 24.11407 | 13136 ft | 346 kts | 119° |
| 2026-05-07 18:43 | 37.62337 | 24.14087 | 13137 ft | 346 kts | 119° |
| 2026-05-07 18:43 | 37.61215 | 24.16763 | 13139 ft | 345 kts | 119° |
| 2026-05-07 18:44 | 37.60093 | 24.19440 | 13138 ft | 345 kts | 119° |
| 2026-05-07 18:44 | 37.58971 | 24.22113 | 13140 ft | 344 kts | 119° |
| 2026-05-07 18:44 | 37.57852 | 24.24778 | 13144 ft | 344 kts | 119° |
| 2026-05-07 18:44 | 37.56734 | 24.27439 | 13148 ft | 344 kts | 119° |
| 2026-05-07 18:45 | 37.55682 | 24.30099 | 13149 ft | 344 kts | 112° |
| 2026-05-07 18:45 | 37.54912 | 24.32959 | 13152 ft | 344 kts | 108° |
| 2026-05-07 18:45 | 37.54174 | 24.35825 | 13154 ft | 344 kts | 109° |
| 2026-05-07 18:45 | 37.53431 | 24.38696 | 13163 ft | 344 kts | 109° |
| 2026-05-07 18:46 | 37.52685 | 24.41566 | 13167 ft | 345 kts | 109° |
| 2026-05-07 18:46 | 37.51939 | 24.44430 | 13166 ft | 345 kts | 109° |
| 2026-05-07 18:46 | 37.51190 | 24.47300 | 13169 ft | 345 kts | 109° |
| 2026-05-07 18:46 | 37.50442 | 24.50161 | 13167 ft | 345 kts | 109° |
| 2026-05-07 18:47 | 37.49691 | 24.53031 | 13171 ft | 347 kts | 108° |
| 2026-05-07 18:47 | 37.49009 | 24.55979 | 13154 ft | 348 kts | 100° |
| 2026-05-07 18:47 | 37.48804 | 24.58966 | 12608 ft | 339 kts | 92° |
| 2026-05-07 18:47 | 37.48710 | 24.61909 | 11831 ft | 335 kts | 91° |
| 2026-05-07 18:48 | 37.48643 | 24.64827 | 11087 ft | 331 kts | 91° |
| 2026-05-07 18:48 | 37.48582 | 24.67685 | 10644 ft | 319 kts | 91° |
| 2026-05-07 18:48 | 37.48522 | 24.70426 | 10173 ft | 309 kts | 91° |
| 2026-05-07 18:48 | 37.48457 | 24.73117 | 9593 ft | 306 kts | 92° |
| 2026-05-07 18:49 | 37.48386 | 24.75772 | 9076 ft | 301 kts | 92° |
| 2026-05-07 18:49 | 37.48314 | 24.78371 | 8658 ft | 293 kts | 92° |
| 2026-05-07 18:49 | 37.48247 | 24.80892 | 8301 ft | 285 kts | 92° |
| 2026-05-07 18:49 | 37.48181 | 24.83379 | 7944 ft | 284 kts | 92° |
| 2026-05-07 18:50 | 37.48114 | 24.85869 | 7589 ft | 285 kts | 93° |
| 2026-05-07 18:50 | 37.48045 | 24.88360 | 7238 ft | 285 kts | 93° |
| 2026-05-07 18:50 | 37.47974 | 24.90855 | 6885 ft | 286 kts | 93° |
| 2026-05-07 18:50 | 37.47904 | 24.93367 | 6507 ft | 287 kts | 93° |
| 2026-05-07 18:51 | 37.47833 | 24.95870 | 6191 ft | 285 kts | 93° |
| 2026-05-07 18:51 | 37.47762 | 24.98365 | 5828 ft | 285 kts | 94° |
| 2026-05-07 18:51 | 37.47689 | 25.00850 | 5487 ft | 283 kts | 94° |
| 2026-05-07 18:51 | 37.47779 | 25.03313 | 5188 ft | 282 kts | 80° |
| 2026-05-07 18:52 | 37.48382 | 25.05634 | 5027 ft | 275 kts | 69° |
| 2026-05-07 18:52 | 37.49096 | 25.07825 | 4908 ft | 266 kts | 69° |
| 2026-05-07 18:52 | 37.49778 | 25.09948 | 4790 ft | 257 kts | 69° |
| 2026-05-07 18:52 | 37.50434 | 25.11994 | 4670 ft | 247 kts | 69° |
| 2026-05-07 18:53 | 37.51061 | 25.13953 | 4571 ft | 236 kts | 69° |
| 2026-05-07 18:53 | 37.51604 | 25.15856 | 4400 ft | 228 kts | 74° |
| 2026-05-07 18:53 | 37.52072 | 25.17812 | 3837 ft | 240 kts | 75° |
| 2026-05-07 18:53 | 37.52546 | 25.19850 | 3196 ft | 249 kts | 75° |
| 2026-05-07 18:54 | 37.53025 | 25.21943 | 2744 ft | 242 kts | 78° |
| 2026-05-07 18:54 | 37.53070 | 25.23925 | 2694 ft | 210 kts | 103° |
| 2026-05-07 18:54 | 37.52821 | 25.25565 | 2646 ft | 179 kts | 103° |
| 2026-05-07 18:54 | 37.52522 | 25.27005 | 2545 ft | 162 kts | 116° |
| 2026-05-07 18:55 | 37.51995 | 25.28182 | 2363 ft | 150 kts | 131° |
| 2026-05-07 18:55 | 37.51291 | 25.29104 | 2169 ft | 144 kts | 145° |
| 2026-05-07 18:55 | 37.50480 | 25.29819 | 1975 ft | 142 kts | 150° |
| 2026-05-07 18:55 | 37.49667 | 25.30517 | 1769 ft | 141 kts | 149° |
| 2026-05-07 18:56 | 37.48858 | 25.31214 | 1559 ft | 141 kts | 149° |
| 2026-05-07 18:56 | 37.48053 | 25.31906 | 1360 ft | 140 kts | 149° |
| 2026-05-07 18:56 | 37.47254 | 25.32598 | 1247 ft | 140 kts | 148° |
| 2026-05-07 18:56 | 37.46435 | 25.33262 | 1053 ft | 139 kts | 153° |
| 2026-05-07 18:57 | 37.45604 | 25.33879 | 775 ft | 138 kts | 155° |
| 2026-05-07 18:57 | 37.44720 | 25.34307 | 483 ft | 135 kts | 161° |
| 2026-05-07 18:57 | 37.43826 | 25.34684 | 416 ft | 134 kts | 165° |
| 2026-05-07 18:57 | 37.43063 | 25.35024 | 414 ft | 72 kts | 161° |
| 2026-05-07 18:58 | 37.42813 | 25.35137 | 409 ft | 29 kts | 162° |
| 2026-05-07 18:58 | 37.42728 | 25.35180 | 410 ft | 10 kts | 221° |
| 2026-05-07 18:58 | 37.42762 | 25.35142 | 410 ft | 11 kts | 350° |
| 2026-05-07 18:58 | 37.42852 | 25.35115 | 412 ft | 14 kts | 339° |
| 2026-05-07 18:59 | 37.42950 | 25.35073 | 414 ft | 16 kts | 342° |
| 2026-05-07 18:59 | 37.43060 | 25.35025 | 414 ft | 18 kts | 341° |
| 2026-05-07 18:59 | 37.43192 | 25.34968 | 409 ft | 22 kts | 341° |
| 2026-05-07 18:59 | 37.43331 | 25.34904 | 413 ft | 19 kts | 339° |
| 2026-05-07 19:00 | 37.43412 | 25.34793 | 406 ft | 18 kts | 295° |
| 2026-05-07 19:00 | 37.43471 | 25.34723 | 408 ft | 7 kts | 325° |
| 2026-05-07 19:00 | 37.43468 | 25.34676 | 407 ft | 3 kts | 249° |
| 2026-05-07 19:00 | 37.43465 | 25.34662 | 405 ft | 0 kts | 251° |